sensor_id;sensor_type;location;lat;lon;timestamp;pressure;altitude;pressure_sealevel;temperature;humidity
33185;BME280;19550;42.872;25.494;2023-05-17T00:01:18;95858.22;;;13.61;100.00
33185;BME280;19550;42.872;25.494;2023-05-17T00:03:45;95855.53;;;13.65;100.00
33185;BME280;19550;42.872;25.494;2023-05-17T00:06:11;95845.06;;;13.74;100.00
33185;BME280;19550;42.872;25.494;2023-05-17T00:08:39;95843.63;;;13.80;100.00
33185;BME280;19550;42.872;25.494;2023-05-17T00:11:06;95846.78;;;13.78;100.00
33185;BME280;19550;42.872;25.494;2023-05-17T00:13:33;95861.91;;;13.65;100.00
33185;BME280;19550;42.872;25.494;2023-05-17T00:16:00;95857.66;;;13.56;100.00
33185;BME280;19550;42.872;25.494;2023-05-17T00:18:26;95853.00;;;13.60;100.00
33185;BME280;19550;42.872;25.494;2023-05-17T00:20:53;95851.97;;;13.52;100.00
33185;BME280;19550;42.872;25.494;2023-05-17T00:23:20;95842.81;;;13.51;100.00
33185;BME280;19550;42.872;25.494;2023-05-17T00:25:48;95825.75;;;13.53;100.00
33185;BME280;19550;42.872;25.494;2023-05-17T00:28:15;95820.78;;;13.46;100.00
33185;BME280;19550;42.872;25.494;2023-05-17T00:30:42;95817.84;;;13.27;100.00
33185;BME280;19550;42.872;25.494;2023-05-17T00:33:09;95809.06;;;13.13;100.00
33185;BME280;19550;42.872;25.494;2023-05-17T00:35:35;95807.41;;;13.12;100.00
33185;BME280;19550;42.872;25.494;2023-05-17T00:38:02;95805.34;;;13.21;100.00
33185;BME280;19550;42.872;25.494;2023-05-17T00:40:29;95809.75;;;13.22;100.00
33185;BME280;19550;42.872;25.494;2023-05-17T00:42:57;95821.22;;;13.21;100.00
33185;BME280;19550;42.872;25.494;2023-05-17T00:45:24;95805.00;;;13.23;100.00
33185;BME280;19550;42.872;25.494;2023-05-17T00:47:51;95801.84;;;13.24;100.00
33185;BME280;19550;42.872;25.494;2023-05-17T00:50:17;95820.06;;;13.22;100.00
33185;BME280;19550;42.872;25.494;2023-05-17T00:52:44;95814.00;;;13.32;100.00
33185;BME280;19550;42.872;25.494;2023-05-17T00:55:11;95802.00;;;13.43;100.00
33185;BME280;19550;42.872;25.494;2023-05-17T00:57:38;95797.78;;;13.62;100.00
33185;BME280;19550;42.872;25.494;2023-05-17T01:00:08;95803.16;;;13.70;100.00
33185;BME280;19550;42.872;25.494;2023-05-17T01:02:35;95804.63;;;13.80;100.00
33185;BME280;19550;42.872;25.494;2023-05-17T01:05:01;95803.53;;;14.12;100.00
33185;BME280;19550;42.872;25.494;2023-05-17T01:07:29;95823.53;;;13.86;100.00
33185;BME280;19550;42.872;25.494;2023-05-17T01:09:56;95822.66;;;13.70;100.00
33185;BME280;19550;42.872;25.494;2023-05-17T01:12:35;95826.00;;;13.48;100.00
33185;BME280;19550;42.872;25.494;2023-05-17T01:15:10;95831.81;;;13.43;100.00
33185;BME280;19550;42.872;25.494;2023-05-17T01:17:40;95829.44;;;13.29;100.00
33185;BME280;19550;42.872;25.494;2023-05-17T01:20:16;95831.19;;;13.22;100.00
33185;BME280;19550;42.872;25.494;2023-05-17T01:22:51;95822.97;;;13.13;100.00
33185;BME280;19550;42.872;25.494;2023-05-17T01:25:35;95815.66;;;13.08;100.00
33185;BME280;19550;42.872;25.494;2023-05-17T01:28:09;95817.63;;;13.20;100.00
33185;BME280;19550;42.872;25.494;2023-05-17T01:30:37;95810.91;;;13.21;100.00
33185;BME280;19550;42.872;25.494;2023-05-17T01:33:06;95804.78;;;13.16;100.00
33185;BME280;19550;42.872;25.494;2023-05-17T01:35:34;95805.94;;;13.15;100.00
33185;BME280;19550;42.872;25.494;2023-05-17T01:38:01;95799.66;;;13.05;100.00
33185;BME280;19550;42.872;25.494;2023-05-17T01:40:29;95788.78;;;13.12;100.00
33185;BME280;19550;42.872;25.494;2023-05-17T01:43:09;95774.25;;;13.19;100.00
33185;BME280;19550;42.872;25.494;2023-05-17T01:45:42;95767.53;;;13.20;100.00
33185;BME280;19550;42.872;25.494;2023-05-17T01:48:19;95763.25;;;13.23;100.00
33185;BME280;19550;42.872;25.494;2023-05-17T01:50:48;95757.84;;;13.30;100.00
33185;BME280;19550;42.872;25.494;2023-05-17T01:53:19;95749.06;;;13.28;100.00
33185;BME280;19550;42.872;25.494;2023-05-17T01:55:49;95746.63;;;13.26;100.00
33185;BME280;19550;42.872;25.494;2023-05-17T01:58:20;95744.31;;;13.28;100.00
33185;BME280;19550;42.872;25.494;2023-05-17T02:00:49;95730.84;;;13.30;100.00
33185;BME280;19550;42.872;25.494;2023-05-17T02:03:18;95725.28;;;13.30;100.00
33185;BME280;19550;42.872;25.494;2023-05-17T02:05:45;95718.81;;;13.26;100.00
33185;BME280;19550;42.872;25.494;2023-05-17T02:08:12;95716.03;;;13.26;100.00
33185;BME280;19550;42.872;25.494;2023-05-17T02:10:39;95723.28;;;13.31;100.00
33185;BME280;19550;42.872;25.494;2023-05-17T02:13:06;95728.16;;;13.34;100.00
33185;BME280;19550;42.872;25.494;2023-05-17T02:15:34;95725.94;;;13.39;100.00
33185;BME280;19550;42.872;25.494;2023-05-17T02:18:01;95726.75;;;13.40;100.00
33185;BME280;19550;42.872;25.494;2023-05-17T02:20:27;95731.84;;;13.38;100.00
33185;BME280;19550;42.872;25.494;2023-05-17T02:22:54;95724.66;;;13.37;100.00
33185;BME280;19550;42.872;25.494;2023-05-17T02:25:21;95729.78;;;13.35;100.00
33185;BME280;19550;42.872;25.494;2023-05-17T02:27:48;95735.78;;;13.37;100.00
33185;BME280;19550;42.872;25.494;2023-05-17T02:30:14;95733.81;;;13.37;100.00
33185;BME280;19550;42.872;25.494;2023-05-17T02:32:43;95740.13;;;13.34;100.00
33185;BME280;19550;42.872;25.494;2023-05-17T02:35:10;95735.44;;;13.38;100.00
33185;BME280;19550;42.872;25.494;2023-05-17T02:37:37;95735.34;;;13.35;100.00
33185;BME280;19550;42.872;25.494;2023-05-17T02:40:05;95737.75;;;13.36;100.00
33185;BME280;19550;42.872;25.494;2023-05-17T02:42:34;95744.06;;;13.33;100.00
33185;BME280;19550;42.872;25.494;2023-05-17T02:45:01;95746.50;;;13.35;100.00
33185;BME280;19550;42.872;25.494;2023-05-17T02:47:28;95745.56;;;13.31;100.00
33185;BME280;19550;42.872;25.494;2023-05-17T02:49:56;95742.69;;;13.27;100.00
33185;BME280;19550;42.872;25.494;2023-05-17T02:52:23;95749.16;;;13.31;100.00
33185;BME280;19550;42.872;25.494;2023-05-17T02:54:50;95761.09;;;13.32;100.00
33185;BME280;19550;42.872;25.494;2023-05-17T02:57:17;95757.78;;;13.26;100.00
33185;BME280;19550;42.872;25.494;2023-05-17T02:59:44;95766.81;;;13.23;100.00
33185;BME280;19550;42.872;25.494;2023-05-17T03:02:10;95760.56;;;13.26;100.00
33185;BME280;19550;42.872;25.494;2023-05-17T03:04:37;95766.81;;;13.23;100.00
33185;BME280;19550;42.872;25.494;2023-05-17T03:07:06;95767.81;;;13.31;100.00
33185;BME280;19550;42.872;25.494;2023-05-17T03:09:33;95764.63;;;13.29;100.00
33185;BME280;19550;42.872;25.494;2023-05-17T03:12:00;95769.09;;;13.33;100.00
33185;BME280;19550;42.872;25.494;2023-05-17T03:14:27;95765.03;;;13.31;100.00
33185;BME280;19550;42.872;25.494;2023-05-17T03:16:54;95770.72;;;13.34;100.00
33185;BME280;19550;42.872;25.494;2023-05-17T03:19:20;95771.00;;;13.29;100.00
33185;BME280;19550;42.872;25.494;2023-05-17T03:21:47;95767.41;;;13.29;100.00
33185;BME280;19550;42.872;25.494;2023-05-17T03:24:15;95771.97;;;13.37;100.00
33185;BME280;19550;42.872;25.494;2023-05-17T03:26:42;95769.91;;;13.34;100.00
33185;BME280;19550;42.872;25.494;2023-05-17T03:29:09;95770.38;;;13.36;100.00
33185;BME280;19550;42.872;25.494;2023-05-17T03:31:36;95778.16;;;13.30;100.00
33185;BME280;19550;42.872;25.494;2023-05-17T03:34:02;95776.19;;;13.31;100.00
33185;BME280;19550;42.872;25.494;2023-05-17T03:36:29;95769.66;;;13.39;100.00
33185;BME280;19550;42.872;25.494;2023-05-17T03:38:58;95778.81;;;13.39;100.00
33185;BME280;19550;42.872;25.494;2023-05-17T03:41:26;95778.44;;;13.53;100.00
33185;BME280;19550;42.872;25.494;2023-05-17T03:43:53;95781.22;;;13.53;100.00
33185;BME280;19550;42.872;25.494;2023-05-17T03:46:20;95781.56;;;13.51;100.00
33185;BME280;19550;42.872;25.494;2023-05-17T03:48:47;95780.59;;;13.60;100.00
33185;BME280;19550;42.872;25.494;2023-05-17T03:51:14;95781.69;;;13.71;100.00
33185;BME280;19550;42.872;25.494;2023-05-17T03:53:41;95784.25;;;13.76;100.00
33185;BME280;19550;42.872;25.494;2023-05-17T03:56:08;95784.25;;;13.76;100.00
33185;BME280;19550;42.872;25.494;2023-05-17T03:58:36;95786.66;;;13.77;100.00
33185;BME280;19550;42.872;25.494;2023-05-17T04:01:03;95783.97;;;13.81;100.00
33185;BME280;19550;42.872;25.494;2023-05-17T04:03:31;95777.69;;;13.84;100.00
33185;BME280;19550;42.872;25.494;2023-05-17T04:06:01;95775.69;;;13.84;100.00
33185;BME280;19550;42.872;25.494;2023-05-17T04:08:30;95780.13;;;13.85;100.00
33185;BME280;19550;42.872;25.494;2023-05-17T04:10:57;95781.28;;;13.84;100.00
33185;BME280;19550;42.872;25.494;2023-05-17T04:13:25;95783.91;;;13.93;100.00
33185;BME280;19550;42.872;25.494;2023-05-17T04:15:53;95782.38;;;13.96;100.00
33185;BME280;19550;42.872;25.494;2023-05-17T04:18:20;95783.81;;;14.05;100.00
33185;BME280;19550;42.872;25.494;2023-05-17T04:20:47;95782.47;;;13.99;100.00
33185;BME280;19550;42.872;25.494;2023-05-17T04:23:14;95777.44;;;14.05;100.00
33185;BME280;19550;42.872;25.494;2023-05-17T04:25:40;95773.94;;;14.08;100.00
33185;BME280;19550;42.872;25.494;2023-05-17T04:28:07;95777.09;;;14.22;100.00
33185;BME280;19550;42.872;25.494;2023-05-17T04:30:34;95777.72;;;14.31;100.00
33185;BME280;19550;42.872;25.494;2023-05-17T04:33:02;95776.28;;;14.37;100.00
33185;BME280;19550;42.872;25.494;2023-05-17T04:35:30;95772.72;;;14.52;100.00
33185;BME280;19550;42.872;25.494;2023-05-17T04:37:57;95778.53;;;14.63;100.00
33185;BME280;19550;42.872;25.494;2023-05-17T04:40:24;95778.44;;;14.75;100.00
33185;BME280;19550;42.872;25.494;2023-05-17T04:42:53;95786.19;;;14.82;100.00
33185;BME280;19550;42.872;25.494;2023-05-17T04:45:19;95786.78;;;14.91;100.00
33185;BME280;19550;42.872;25.494;2023-05-17T04:47:46;95780.91;;;14.96;100.00
33185;BME280;19550;42.872;25.494;2023-05-17T04:50:16;95788.91;;;14.97;100.00
33185;BME280;19550;42.872;25.494;2023-05-17T04:52:43;95792.31;;;15.06;100.00
33185;BME280;19550;42.872;25.494;2023-05-17T04:55:10;95791.69;;;15.13;100.00
33185;BME280;19550;42.872;25.494;2023-05-17T04:57:37;95794.28;;;15.22;100.00
33185;BME280;19550;42.872;25.494;2023-05-17T05:00:05;95792.00;;;15.27;100.00
33185;BME280;19550;42.872;25.494;2023-05-17T05:02:34;95798.09;;;15.33;100.00
33185;BME280;19550;42.872;25.494;2023-05-17T05:05:01;95797.78;;;15.38;100.00
33185;BME280;19550;42.872;25.494;2023-05-17T05:07:30;95789.28;;;15.50;100.00
33185;BME280;19550;42.872;25.494;2023-05-17T05:09:57;95796.97;;;15.53;100.00
33185;BME280;19550;42.872;25.494;2023-05-17T05:12:24;95796.81;;;15.65;100.00
33185;BME280;19550;42.872;25.494;2023-05-17T05:14:50;95802.59;;;15.76;100.00
33185;BME280;19550;42.872;25.494;2023-05-17T05:17:17;95799.88;;;15.99;100.00
33185;BME280;19550;42.872;25.494;2023-05-17T05:19:45;95796.09;;;16.10;100.00
33185;BME280;19550;42.872;25.494;2023-05-17T05:22:13;95793.19;;;16.26;100.00
33185;BME280;19550;42.872;25.494;2023-05-17T05:24:41;95796.56;;;16.35;100.00
33185;BME280;19550;42.872;25.494;2023-05-17T05:27:08;95792.75;;;16.47;100.00
33185;BME280;19550;42.872;25.494;2023-05-17T05:29:35;95793.69;;;16.54;100.00
33185;BME280;19550;42.872;25.494;2023-05-17T05:32:02;95778.47;;;16.52;100.00
33185;BME280;19550;42.872;25.494;2023-05-17T05:34:29;95792.88;;;16.54;100.00
33185;BME280;19550;42.872;25.494;2023-05-17T05:36:56;95792.22;;;16.60;100.00
33185;BME280;19550;42.872;25.494;2023-05-17T05:39:22;95790.41;;;16.72;100.00
33185;BME280;19550;42.872;25.494;2023-05-17T05:41:50;95797.19;;;16.71;100.00
33185;BME280;19550;42.872;25.494;2023-05-17T05:44:17;95802.56;;;16.83;100.00
33185;BME280;19550;42.872;25.494;2023-05-17T05:46:44;95797.16;;;16.93;100.00
33185;BME280;19550;42.872;25.494;2023-05-17T05:49:11;95792.97;;;17.06;100.00
33185;BME280;19550;42.872;25.494;2023-05-17T05:51:37;95793.47;;;17.16;100.00
33185;BME280;19550;42.872;25.494;2023-05-17T05:54:04;95799.16;;;17.19;100.00
33185;BME280;19550;42.872;25.494;2023-05-17T05:56:31;95800.16;;;17.34;100.00
33185;BME280;19550;42.872;25.494;2023-05-17T05:58:59;95799.13;;;17.45;100.00
33185;BME280;19550;42.872;25.494;2023-05-17T06:01:26;95794.19;;;17.65;100.00
33185;BME280;19550;42.872;25.494;2023-05-17T06:03:54;95797.09;;;17.72;100.00
33185;BME280;19550;42.872;25.494;2023-05-17T06:06:20;95801.25;;;17.85;100.00
33185;BME280;19550;42.872;25.494;2023-05-17T06:08:47;95793.41;;;18.02;100.00
33185;BME280;19550;42.872;25.494;2023-05-17T06:11:14;95801.50;;;18.07;100.00
33185;BME280;19550;42.872;25.494;2023-05-17T06:13:42;95798.44;;;18.19;100.00
33185;BME280;19550;42.872;25.494;2023-05-17T06:16:10;95797.66;;;18.22;100.00
33185;BME280;19550;42.872;25.494;2023-05-17T06:18:37;95804.22;;;18.37;100.00
33185;BME280;19550;42.872;25.494;2023-05-17T06:21:04;95808.09;;;18.58;100.00
33185;BME280;19550;42.872;25.494;2023-05-17T06:23:31;95811.72;;;18.62;100.00
33185;BME280;19550;42.872;25.494;2023-05-17T06:25:57;95812.97;;;18.69;100.00
33185;BME280;19550;42.872;25.494;2023-05-17T06:28:25;95808.66;;;18.82;100.00
33185;BME280;19550;42.872;25.494;2023-05-17T06:30:52;95810.22;;;18.72;100.00
33185;BME280;19550;42.872;25.494;2023-05-17T06:33:20;95822.25;;;18.73;100.00
33185;BME280;19550;42.872;25.494;2023-05-17T06:35:47;95821.81;;;18.67;100.00
33185;BME280;19550;42.872;25.494;2023-05-17T06:38:14;95821.31;;;18.61;100.00
33185;BME280;19550;42.872;25.494;2023-05-17T06:40:41;95821.19;;;18.47;100.00
33185;BME280;19550;42.872;25.494;2023-05-17T06:43:08;95829.19;;;18.45;100.00
33185;BME280;19550;42.872;25.494;2023-05-17T06:45:35;95831.97;;;18.45;100.00
33185;BME280;19550;42.872;25.494;2023-05-17T06:48:02;95820.13;;;18.59;100.00
33185;BME280;19550;42.872;25.494;2023-05-17T06:50:30;95815.63;;;18.54;100.00
33185;BME280;19550;42.872;25.494;2023-05-17T06:52:57;95825.25;;;18.53;100.00
33185;BME280;19550;42.872;25.494;2023-05-17T06:55:23;95828.53;;;18.59;100.00
33185;BME280;19550;42.872;25.494;2023-05-17T06:57:50;95828.63;;;18.70;100.00
33185;BME280;19550;42.872;25.494;2023-05-17T07:00:18;95832.75;;;18.79;100.00
33185;BME280;19550;42.872;25.494;2023-05-17T07:02:45;95839.66;;;18.92;100.00
33185;BME280;19550;42.872;25.494;2023-05-17T07:05:12;95837.38;;;19.05;100.00
33185;BME280;19550;42.872;25.494;2023-05-17T07:07:40;95841.44;;;19.11;100.00
33185;BME280;19550;42.872;25.494;2023-05-17T07:10:07;95833.44;;;19.17;100.00
33185;BME280;19550;42.872;25.494;2023-05-17T07:12:34;95827.91;;;19.27;100.00
33185;BME280;19550;42.872;25.494;2023-05-17T07:15:01;95825.53;;;19.36;100.00
33185;BME280;19550;42.872;25.494;2023-05-17T07:17:28;95830.88;;;19.49;100.00
33185;BME280;19550;42.872;25.494;2023-05-17T07:19:54;95834.63;;;19.67;100.00
33185;BME280;19550;42.872;25.494;2023-05-17T07:22:21;95826.22;;;19.74;100.00
33185;BME280;19550;42.872;25.494;2023-05-17T07:24:49;95824.69;;;19.87;99.76
33185;BME280;19550;42.872;25.494;2023-05-17T07:27:16;95822.31;;;20.03;99.13
33185;BME280;19550;42.872;25.494;2023-05-17T07:29:43;95830.41;;;20.22;99.91
33185;BME280;19550;42.872;25.494;2023-05-17T07:32:10;95831.66;;;20.32;98.57
33185;BME280;19550;42.872;25.494;2023-05-17T07:34:37;95832.91;;;20.38;100.00
33185;BME280;19550;42.872;25.494;2023-05-17T07:37:04;95848.22;;;20.41;95.11
33185;BME280;19550;42.872;25.494;2023-05-17T07:39:30;95845.00;;;20.46;96.83
33185;BME280;19550;42.872;25.494;2023-05-17T07:41:59;95842.22;;;20.56;97.22
33185;BME280;19550;42.872;25.494;2023-05-17T07:44:25;95845.06;;;20.81;96.19
33185;BME280;19550;42.872;25.494;2023-05-17T07:46:52;95839.41;;;20.71;93.37
33185;BME280;19550;42.872;25.494;2023-05-17T07:49:19;95844.22;;;20.56;91.65
33185;BME280;19550;42.872;25.494;2023-05-17T07:51:46;95849.44;;;20.61;93.79
33185;BME280;19550;42.872;25.494;2023-05-17T07:54:21;95845.06;;;20.71;93.26
33185;BME280;19550;42.872;25.494;2023-05-17T07:56:49;95850.63;;;20.49;94.04
33185;BME280;19550;42.872;25.494;2023-05-17T07:59:18;95843.84;;;20.54;96.22
33185;BME280;19550;42.872;25.494;2023-05-17T08:01:45;95844.59;;;20.44;94.27
33185;BME280;19550;42.872;25.494;2023-05-17T08:04:12;95845.72;;;20.29;95.62
33185;BME280;19550;42.872;25.494;2023-05-17T08:06:39;95845.75;;;20.32;95.59
33185;BME280;19550;42.872;25.494;2023-05-17T08:09:06;95842.50;;;20.23;94.68
33185;BME280;19550;42.872;25.494;2023-05-17T08:11:33;95842.47;;;20.12;96.68
33185;BME280;19550;42.872;25.494;2023-05-17T08:14:00;95832.44;;;20.22;95.45
33185;BME280;19550;42.872;25.494;2023-05-17T08:16:28;95836.03;;;20.22;95.45
33185;BME280;19550;42.872;25.494;2023-05-17T08:18:55;95827.97;;;20.07;94.45
33185;BME280;19550;42.872;25.494;2023-05-17T08:21:22;95832.81;;;20.17;94.50
33185;BME280;19550;42.872;25.494;2023-05-17T08:23:49;95827.97;;;20.10;94.69
33185;BME280;19550;42.872;25.494;2023-05-17T08:26:16;95843.28;;;20.13;95.39
33185;BME280;19550;42.872;25.494;2023-05-17T08:28:43;95833.22;;;20.22;95.04
33185;BME280;19550;42.872;25.494;2023-05-17T08:31:10;95837.28;;;20.29;95.35
33185;BME280;19550;42.872;25.494;2023-05-17T08:33:38;95840.94;;;20.36;94.14
33185;BME280;19550;42.872;25.494;2023-05-17T08:36:06;95848.16;;;20.27;94.75
33185;BME280;19550;42.872;25.494;2023-05-17T08:38:33;95852.59;;;20.35;94.11
33185;BME280;19550;42.872;25.494;2023-05-17T08:41:00;95868.22;;;20.18;93.09
33185;BME280;19550;42.872;25.494;2023-05-17T08:43:28;95862.97;;;20.13;94.21
33185;BME280;19550;42.872;25.494;2023-05-17T08:45:56;95856.94;;;20.18;93.66
33185;BME280;19550;42.872;25.494;2023-05-17T08:48:23;95881.44;;;20.10;92.52
33185;BME280;19550;42.872;25.494;2023-05-17T08:50:53;95867.22;;;19.82;92.73
33185;BME280;19550;42.872;25.494;2023-05-17T08:53:22;95869.22;;;19.78;92.48
33185;BME280;19550;42.872;25.494;2023-05-17T08:55:50;95873.44;;;19.47;94.45
33185;BME280;19550;42.872;25.494;2023-05-17T08:58:19;95866.25;;;19.53;95.45
33185;BME280;19550;42.872;25.494;2023-05-17T09:00:47;95867.75;;;19.43;95.19
33185;BME280;19550;42.872;25.494;2023-05-17T09:03:17;95863.50;;;19.60;96.02
33185;BME280;19550;42.872;25.494;2023-05-17T09:05:44;95860.47;;;19.32;95.06
33185;BME280;19550;42.872;25.494;2023-05-17T09:08:12;95855.28;;;19.37;95.79
33185;BME280;19550;42.872;25.494;2023-05-17T09:10:39;95857.31;;;19.40;97.11
33185;BME280;19550;42.872;25.494;2023-05-17T09:13:06;95863.59;;;19.23;96.38
33185;BME280;19550;42.872;25.494;2023-05-17T09:15:33;95859.66;;;19.31;97.09
33185;BME280;19550;42.872;25.494;2023-05-17T09:18:00;95864.31;;;19.13;96.60
33185;BME280;19550;42.872;25.494;2023-05-17T09:20:28;95870.75;;;19.14;97.33
33185;BME280;19550;42.872;25.494;2023-05-17T09:22:59;95878.19;;;18.95;99.16
33185;BME280;19550;42.872;25.494;2023-05-17T09:25:28;95888.22;;;18.93;100.00
33185;BME280;19550;42.872;25.494;2023-05-17T09:27:59;95890.41;;;18.70;100.00
33185;BME280;19550;42.872;25.494;2023-05-17T09:30:26;95887.00;;;18.53;100.00
33185;BME280;19550;42.872;25.494;2023-05-17T09:32:53;95893.47;;;18.57;100.00
33185;BME280;19550;42.872;25.494;2023-05-17T09:35:26;95883.22;;;18.39;100.00
33185;BME280;19550;42.872;25.494;2023-05-17T09:37:54;95891.72;;;18.46;100.00
33185;BME280;19550;42.872;25.494;2023-05-17T09:40:23;95885.25;;;18.42;100.00
33185;BME280;19550;42.872;25.494;2023-05-17T09:42:52;95883.56;;;18.34;100.00
33185;BME280;19550;42.872;25.494;2023-05-17T09:45:22;95879.44;;;18.24;100.00
33185;BME280;19550;42.872;25.494;2023-05-17T09:47:50;95885.88;;;18.24;100.00
33185;BME280;19550;42.872;25.494;2023-05-17T09:50:18;95877.81;;;18.23;100.00
33185;BME280;19550;42.872;25.494;2023-05-17T09:52:45;95883.66;;;18.41;100.00
33185;BME280;19550;42.872;25.494;2023-05-17T09:55:12;95886.06;;;18.09;100.00
33185;BME280;19550;42.872;25.494;2023-05-17T09:57:40;95894.09;;;18.10;100.00
33185;BME280;19550;42.872;25.494;2023-05-17T10:00:09;95890.66;;;17.91;100.00
33185;BME280;19550;42.872;25.494;2023-05-17T10:02:38;95889.00;;;17.86;100.00
33185;BME280;19550;42.872;25.494;2023-05-17T10:05:09;95887.41;;;17.88;100.00
33185;BME280;19550;42.872;25.494;2023-05-17T10:07:36;95878.81;;;17.74;100.00
33185;BME280;19550;42.872;25.494;2023-05-17T10:10:04;95861.78;;;17.60;100.00
33185;BME280;19550;42.872;25.494;2023-05-17T10:12:33;95862.88;;;17.56;100.00
33185;BME280;19550;42.872;25.494;2023-05-17T10:15:00;95858.97;;;17.60;100.00
33185;BME280;19550;42.872;25.494;2023-05-17T10:17:28;95855.44;;;17.63;100.00
33185;BME280;19550;42.872;25.494;2023-05-17T10:19:57;95873.84;;;17.38;100.00
33185;BME280;19550;42.872;25.494;2023-05-17T10:22:25;95877.31;;;17.28;100.00
33185;BME280;19550;42.872;25.494;2023-05-17T10:24:55;95870.81;;;17.24;100.00
33185;BME280;19550;42.872;25.494;2023-05-17T10:27:22;95877.69;;;17.03;100.00
33185;BME280;19550;42.872;25.494;2023-05-17T10:29:52;95863.66;;;16.77;100.00
33185;BME280;19550;42.872;25.494;2023-05-17T10:32:20;95858.56;;;16.60;100.00
33185;BME280;19550;42.872;25.494;2023-05-17T10:34:52;95855.09;;;16.66;100.00
33185;BME280;19550;42.872;25.494;2023-05-17T10:37:20;95853.22;;;16.74;100.00
33185;BME280;19550;42.872;25.494;2023-05-17T10:39:48;95856.28;;;16.88;100.00
33185;BME280;19550;42.872;25.494;2023-05-17T10:42:16;95862.16;;;16.83;100.00
33185;BME280;19550;42.872;25.494;2023-05-17T10:44:45;95848.09;;;17.02;100.00
33185;BME280;19550;42.872;25.494;2023-05-17T10:47:14;95848.28;;;17.13;100.00
33185;BME280;19550;42.872;25.494;2023-05-17T10:49:43;95845.91;;;17.15;100.00
33185;BME280;19550;42.872;25.494;2023-05-17T10:52:15;95829.72;;;17.31;100.00
33185;BME280;19550;42.872;25.494;2023-05-17T10:54:43;95834.16;;;17.32;100.00
33185;BME280;19550;42.872;25.494;2023-05-17T10:57:19;95842.19;;;17.34;100.00
33185;BME280;19550;42.872;25.494;2023-05-17T10:59:57;95831.81;;;17.38;100.00
33185;BME280;19550;42.872;25.494;2023-05-17T11:02:25;95833.81;;;17.37;100.00
33185;BME280;19550;42.872;25.494;2023-05-17T11:04:53;95817.44;;;17.39;100.00
33185;BME280;19550;42.872;25.494;2023-05-17T11:07:25;95831.25;;;17.55;100.00
33185;BME280;19550;42.872;25.494;2023-05-17T11:10:02;95823.50;;;17.71;100.00
33185;BME280;19550;42.872;25.494;2023-05-17T11:12:33;95825.47;;;17.67;100.00
33185;BME280;19550;42.872;25.494;2023-05-17T11:15:03;95832.59;;;17.61;100.00
33185;BME280;19550;42.872;25.494;2023-05-17T11:17:35;95835.47;;;17.42;100.00
33185;BME280;19550;42.872;25.494;2023-05-17T11:20:08;95837.88;;;17.40;100.00
33185;BME280;19550;42.872;25.494;2023-05-17T11:22:41;95838.00;;;17.21;100.00
33185;BME280;19550;42.872;25.494;2023-05-17T11:25:10;95839.50;;;17.15;100.00
33185;BME280;19550;42.872;25.494;2023-05-17T11:27:44;95832.09;;;17.03;100.00
33185;BME280;19550;42.872;25.494;2023-05-17T11:30:21;95833.31;;;16.79;100.00
33185;BME280;19550;42.872;25.494;2023-05-17T11:32:49;95827.47;;;16.65;100.00
33185;BME280;19550;42.872;25.494;2023-05-17T11:35:18;95821.59;;;16.51;100.00
33185;BME280;19550;42.872;25.494;2023-05-17T11:37:50;95825.84;;;16.41;100.00
33185;BME280;19550;42.872;25.494;2023-05-17T11:40:23;95826.25;;;16.43;100.00
33185;BME280;19550;42.872;25.494;2023-05-17T11:43:09;95823.84;;;16.42;100.00
33185;BME280;19550;42.872;25.494;2023-05-17T11:45:44;95826.34;;;16.47;100.00
33185;BME280;19550;42.872;25.494;2023-05-17T11:48:12;95822.72;;;16.46;100.00
33185;BME280;19550;42.872;25.494;2023-05-17T11:50:41;95833.34;;;16.37;100.00
33185;BME280;19550;42.872;25.494;2023-05-17T11:53:10;95827.38;;;16.39;100.00
33185;BME280;19550;42.872;25.494;2023-05-17T11:55:38;95832.63;;;16.40;100.00
33185;BME280;19550;42.872;25.494;2023-05-17T11:58:07;95835.78;;;16.39;100.00
33185;BME280;19550;42.872;25.494;2023-05-17T12:00:34;95836.09;;;16.34;100.00
33185;BME280;19550;42.872;25.494;2023-05-17T12:03:17;95839.97;;;16.29;100.00
33185;BME280;19550;42.872;25.494;2023-05-17T12:05:45;95847.28;;;16.34;100.00
33185;BME280;19550;42.872;25.494;2023-05-17T12:08:16;95843.16;;;16.27;100.00
33185;BME280;19550;42.872;25.494;2023-05-17T12:10:45;95838.38;;;16.28;100.00
33185;BME280;19550;42.872;25.494;2023-05-17T12:13:12;95841.09;;;16.24;100.00
33185;BME280;19550;42.872;25.494;2023-05-17T12:15:39;95833.84;;;16.20;100.00
33185;BME280;19550;42.872;25.494;2023-05-17T12:18:07;95832.66;;;16.21;100.00
33185;BME280;19550;42.872;25.494;2023-05-17T12:20:33;95836.13;;;16.14;100.00
33185;BME280;19550;42.872;25.494;2023-05-17T12:23:02;95834.50;;;16.13;100.00
33185;BME280;19550;42.872;25.494;2023-05-17T12:25:30;95831.75;;;16.17;100.00
33185;BME280;19550;42.872;25.494;2023-05-17T12:28:14;95837.75;;;16.15;100.00
33185;BME280;19550;42.872;25.494;2023-05-17T12:30:41;95839.28;;;16.13;100.00
33185;BME280;19550;42.872;25.494;2023-05-17T12:33:08;95837.00;;;16.18;100.00
33185;BME280;19550;42.872;25.494;2023-05-17T12:35:35;95838.91;;;16.14;100.00
33185;BME280;19550;42.872;25.494;2023-05-17T12:38:02;95837.81;;;16.19;100.00
33185;BME280;19550;42.872;25.494;2023-05-17T12:40:31;95835.47;;;16.21;100.00
33185;BME280;19550;42.872;25.494;2023-05-17T12:43:01;95832.22;;;16.19;100.00
33185;BME280;19550;42.872;25.494;2023-05-17T12:45:28;95842.59;;;16.18;100.00